• Join FlightAware (Why Join?)
  • Login
  • US Flag 
02:31AM EDT


 

Airport Tracker/Info


-or-


 

Live Flight TrackerFlight Track Log ✈ N21921 ✈ 2013년 Aug 18일 ✈ KCHS - KAKR

Flight Track Log - Related Links

Times and Time Zones

All times are in EDT time to prevent confusion due to time zone crossing. See the N21921 flight status page for this flight to view local times or setup timezone preferences in your user account.

Time Position Orientation Groundspeed Altitude Reporting Facility
EDT Latitude Longitude Course Direction KTS MPH feet Rate Location/Type
11:06AM 32.9469 -80.0681 North 119 137 1,200  Level Jacksonville Center
11:07AM 32.9828 -80.0819 342° North 129 148 2,100 840 Climbing Jacksonville Center
11:08AM 33.0186 -80.0981 339° North 129 148 2,900 840 Climbing Jacksonville Center
11:09AM 33.0608 -80.1167 340° North 134 154 3,800 900 Climbing Jacksonville Center
11:10AM 33.1008 -80.1328 341° North 140 161 4,800 840 Climbing Jacksonville Center
11:11AM 33.2387 -80.0833 North  Level FlightAware Approximate
11:11AM 33.1450 -80.1439 348° North 150 173 5,500  Level Jacksonville Center
11:12AM 33.1869 -80.1575 345° North 155 178 6,400 780 Climbing Jacksonville Center
11:13AM 33.2311 -80.1708 346° North 155 178 7,100 660 Climbing Jacksonville Center
11:14AM 33.2794 -80.1844 347° North 166 191 7,800 720 Climbing Jacksonville Center
11:15AM 33.3278 -80.2003 345° North 166 191 8,600 720 Climbing Jacksonville Center
11:16AM 33.3778 -80.2036 357° North 171 197 9,300 660 Climbing Jacksonville Center
11:17AM 33.4303 -80.2122 352° North 177 204 10,000 600 Climbing Jacksonville Center
11:18AM 33.4825 -80.2181 355° North 182 209 10,600 540 Climbing Jacksonville Center
11:19AM 33.5369 -80.2264 353° North 182 209 11,100 600 Climbing Jacksonville Center
11:20AM 33.5894 -80.2372 350° North 182 209 11,800 600 Climbing Jacksonville Center
11:21AM 33.6439 -80.2456 353° North 182 209 12,400 600 Climbing Jacksonville Center
11:22AM 33.6961 -80.2489 357° North 187 215 13,000 600 Climbing Jacksonville Center
11:23AM 33.7483 -80.2600 350° North 187 215 13,600 540 Climbing Jacksonville Center
11:24AM 33.8050 -80.2683 353° North 192 221 14,100 240 Climbing Jacksonville Center
11:25AM 33.8656 -80.2764 354° North 203 234 14,100  Level Jacksonville Center
11:26AM 33.9283 -80.2844 354° North 209 241 14,100 300 Level Jacksonville Center
11:27AM 33.9869 -80.2953 351° North 215 247 14,700 600 Climbing Jacksonville Center
11:28AM 34.0436 -80.3036 353° North 210 242 15,300 540 Climbing Jacksonville Center
11:29AM 34.1000 -80.3094 355° North 210 242 15,800 540 Climbing Jacksonville Center
11:30AM 34.1586 -80.3228 349° North 205 236 16,400 540 Climbing Jacksonville Center
11:31AM 34.2153 -80.3311 353° North 205 236 16,900 480 Climbing Jacksonville Center
11:32AM 34.2758 -80.3419 352° North 210 242 17,400 360 Climbing Jacksonville Center
11:34AM 34.4028 -80.3581 354° North 222 255 18,100 180 Climbing Atlanta Center
11:35AM 34.4594 -80.3683 351° North 229 264 18,000 -60 Descending Atlanta Center
11:36AM 34.5264 -80.3778 353° North 240 276 18,000  Level Atlanta Center
11:37AM 34.5958 -80.3900 352° North 240 276 18,000  Level Atlanta Center
11:38AM 34.6647 -80.3972 355° North 240 276 18,000  Level Atlanta Center
11:39AM 34.7361 -80.4067 354° North 240 276 18,000  Level Atlanta Center
11:40AM 34.8031 -80.4189 351° North 242 278 18,000  Level Atlanta Center
11:41AM 34.8744 -80.4311 352° North 253 291 18,000  Level Atlanta Center
11:42AM 34.9500 -80.4403 354° North 258 297 18,000  Level Atlanta Center
11:43AM 35.0189 -80.4500 353° North 258 297 18,000  Level Atlanta Center
11:44AM 35.0861 -80.4625 351° North 253 291 18,000  Level Atlanta Center
11:45AM 35.1553 -80.4722 353° North 253 291 18,000  Level Atlanta Center
11:46AM 35.2244 -80.4844 352° North 253 291 18,000  Level Atlanta Center
11:47AM 35.2917 -80.4942 353° North 248 285 18,000  Level Atlanta Center
11:48AM 35.3606 -80.5039 353° North 248 285 18,000  Level Atlanta Center
11:49AM 35.4278 -80.5139 353° North 243 280 18,000  Level Atlanta Center
11:50AM 35.4969 -80.5261 352° North 243 280 18,000  Level Atlanta Center
11:51AM 35.5661 -80.5333 355° North 243 280 18,000  Level Atlanta Center
11:52AM 35.6353 -80.5458 352° North 243 280 18,000  Level Atlanta Center
11:53AM 35.6958 -80.5561 352° North 243 280 18,000  Level Atlanta Center
11:54AM 35.7631 -80.5658 353° North 238 274 18,000  Level Atlanta Center
11:55AM 35.8322 -80.5758 353° North 244 281 18,000  Level Atlanta Center
11:56AM 35.8992 -80.5883 351° North 244 281 18,000  Level Atlanta Center
11:57AM 35.9706 -80.6008 352° North 244 281 18,000  Level Atlanta Center
11:58AM 36.0375 -80.6108 353° North 244 281 18,000  Level Atlanta Center
11:59AM 36.1067 -80.6206 354° North 239 275 18,000  Level Atlanta Center
12:00PM 36.1717 -80.6333 351° North 239 275 18,000  Level Atlanta Center
12:01PM 36.2408 -80.6433 353° North 239 275 18,000  Level Atlanta Center
12:02PM 36.3142 -80.6556 352° North 239 275 18,100  Climbing Atlanta Center
12:03PM 36.3811 -80.6631 355° North 239 275 18,000 -60 Descending Atlanta Center
12:04PM 36.4481 -80.6758 351° North 239 275 18,000  Level Atlanta Center
12:05PM 36.5150 -80.6858 353° North 239 275 18,000  Level Atlanta Center
12:06PM 36.5800 -80.6961 353° North 239 275 18,000  Level Atlanta Center
12:07PM 36.6469 -80.7061 353° North 233 268 18,000  Level Atlanta Center
12:08PM 36.7119 -80.7139 355° North 239 275 18,000  Level Atlanta Center
12:09PM 36.7706 -80.7269 350° North 239 275 18,000  Level Atlanta Center
12:10PM 36.8439 -80.7394 352° North 239 275 18,000  Level Atlanta Center
12:11PM 36.9111 -80.7522 351° North 239 275 18,000  Level Atlanta Center
12:12PM 36.9758 -80.7625 353° North 239 275 18,000  Level Atlanta Center
12:14PM 37.1222 -80.7833 354° North 241 277 18,000  Level Indianapolis Center
12:15PM 37.1889 -80.7942 353° North 244 281 18,000  Level Indianapolis Center
12:16PM 37.2536 -80.8056 352° North 242 278 18,000  Level Indianapolis Center
12:17PM 37.3194 -80.8169 352° North 243 280 18,000  Level Indianapolis Center
12:18PM 37.3972 -80.8294 353° North 242 278 18,000  Level Indianapolis Center
12:19PM 37.4633 -80.8400 353° North 244 281 18,000  Level Indianapolis Center
12:20PM 37.5275 -80.8506 353° North 240 276 18,000  Level Indianapolis Center
12:21PM 37.5903 -80.8611 352° North 236 272 18,000  Level Indianapolis Center
12:22PM 37.6686 -80.8747 352° North 240 276 18,000  Level Indianapolis Center
12:23PM 37.7328 -80.8858 352° North 238 274 18,000  Level Indianapolis Center
12:24PM 37.7961 -80.8967 352° North 237 273 18,000  Level Indianapolis Center
12:26PM 37.8669 -80.9081 353° North 236 272 18,000  Level Indianapolis Center
12:27PM 37.9311 -80.9189 352° North 235 270 18,000  Level Indianapolis Center
12:28PM 37.9967 -80.9289 353° North 237 273 18,000  Level Indianapolis Center
12:29PM 38.0614 -80.9414 351° North 237 273 18,000  Level Indianapolis Center
12:30PM 38.1267 -80.9522 353° North 235 270 18,100  Climbing Indianapolis Center
12:31PM 38.1928 -80.9625 353° North 237 273 18,000  Descending Indianapolis Center
12:32PM 38.2706 -80.9764 352° North 234 269 18,100  Climbing Indianapolis Center
12:33PM 38.3361 -80.9878 352° North 238 274 18,000 -60 Descending Indianapolis Center
12:34PM 38.4006 -80.9992 352° North 235 270 18,000  Level Indianapolis Center
12:35PM 38.4644 -81.0144 349° North 235 270 18,000  Level Indianapolis Center
12:36PM 38.5278 -81.0325 347° North 236 272 18,000  Level Indianapolis Center
12:37PM 38.5928 -81.0536 346° North 241 277 18,000  Level Indianapolis Center
12:38PM 38.6508 -81.0875 335° Northwest 231 266 18,000  Level Indianapolis Center
12:39PM 38.7306 -81.1033 351° North 243 280 18,100  Climbing Indianapolis Center
12:40PM 38.7978 -81.1136 353° North 242 278 18,000 -60 Descending Indianapolis Center
12:41PM 38.8653 -81.1231 354° North 247 284 18,000 -60 Level Indianapolis Center
12:42PM 38.9336 -81.1339 353° North 248 285 17,900  Descending Indianapolis Center
12:43PM 39.0008 -81.1436 354° North 244 281 18,100  Climbing Indianapolis Center
12:44PM 39.0683 -81.1550 353° North 245 282 18,000 -60 Descending Indianapolis Center
12:45PM 39.1511 -81.1658 354° North 249 287 18,000  Level Indianapolis Center
12:46PM 39.2192 -81.1778 352° North 247 284 18,000  Level Indianapolis Center
12:47PM 39.2858 -81.1869 354° North 242 278 18,000  Level Indianapolis Center
12:48PM 39.3536 -81.1981 353° North 244 281 18,000  Level Indianapolis Center
12:49PM 39.4236 -81.2078 354° North 251 289 18,000  Level Indianapolis Center
12:50PM 39.4922 -81.2178 354° North 249 287 18,000  Level Indianapolis Center
12:51PM 39.5608 -81.2289 353° North 248 285 18,000 -60 Level Indianapolis Center
12:52PM 39.6442 -81.2406 354° North 251 289 17,900 -120 Descending Indianapolis Center
12:53PM 39.7150 -81.2572 350° North 257 296 17,800 -480 Descending Indianapolis Center
12:54PM 39.7872 -81.2661 355° North 262 302 17,000 -780 Descending Indianapolis Center
12:55PM 39.8608 -81.2739 355° North 264 304 16,200 -840 Descending Indianapolis Center
12:56PM 39.9325 -81.2861 353° North 260 299 15,300 -960 Descending Indianapolis Center
12:57PM 40.0111 -81.2975 354° North 260 299 14,300 -960 Descending Indianapolis Center
12:58PM 40.0847 -81.3075 354° North 262 302 13,400 -780 Descending Indianapolis Center
01:00PM 40.1544 -81.3203 352° North 254 292 12,700 -1,380 Descending Indianapolis Center
01:02PM 40.3231 -81.3456 353° North 252 290 9,000 -960 Descending Cleveland Center
01:03PM 40.3919 -81.3544 354° North 252 290 9,600 -300 Climbing Cleveland Center
01:04PM 40.4606 -81.3636 354° North 252 290 8,500 -1,200 Descending Cleveland Center
01:05PM 40.5292 -81.3781 351° North 252 290 7,300 -1,200 Descending Cleveland Center
01:06PM 40.5978 -81.3981 348° North 252 290 6,200 -1,140 Descending Cleveland Center
01:07PM 40.6644 -81.4097 352° North 252 290 5,100 -600 Descending Cleveland Center
01:08PM 40.7228 -81.4158 355° North 226 260 5,100  Level Cleveland Center